Merritt Island, Florida
Current Conditions -  °F | °C
As of 11:58 AM on Thursday 23 Oct 2014 (Local Time) from KCOF Reporting Station
Clear Clear  
Wind Chill: 78°   Ceiling: Unl
Heat Index: 80°   Visibility: 10mi
Dew Point: 60°   Wind: 13mph
Humidity: 52%   Direction: 40°NE
Pressure: 30"   Gusts: NA
Location:  28.36°N, 80.68°W
Report Text: KCOF 231558Z AUTO 04011KT 10SM CLR 26/15 A3000 RMK AO2 SLP163 T02580154
Loading
Personal Weather Stations






























Interactive Weather Map New forecast layout! Learn more

10-Day Weather Forecast

Advertisements
Track Severe Weather on mobile